Logo AVAMET
Benvolgut visitant, si us plau, ingressa Recuperar contrasenya

Torrevella Acequión

Dades diàries. Acumulats / Últims 30 dies disponibles

Data Temperatura (°C) Humitat rel. (%) Pressió rel. (hPa) Vent (km/h) Precipitació
Mínima Mitjana Màxima Amplitud
tèrmica
Mínima Mitjana Màxima Mínima Mitjana Màxima Predom. Mitjana Ràfega
màxima
Total
(mm)
Índex-n
Mínima Mitjana Màxima Mínima Mitjana Màxima n
0 a 1
P0 max
mm 5'
Dades mensuals acumulades fins l'últim dia disponible
11/2019 8,1 13,3 20,9 16,5 15,4 20,4 28,2 20,1 32 56 91 1.000 1.011 1.021   8,6 59,5 4,2
Dades anuals acumulades fins l'últim dia disponible
2019 4,6 16,7 26,4 19,7 12,4 23,1 35,8 31,2 16 72 99 995 1.016 1.034   6,9 66,0 490,2
Últims 30 dies disponibles
19-11-2019 9,1     12,3     16,6 7,5 42 61 80 1.015 1.016 1.018 O 6,1 30,6 0,0
18-11-2019 10,8     13,2     17,4 6,6 46 67 91 1.006 1.011 1.016 ONO 7,1 32,2 2,2 0,20
17-11-2019 8,1     13,0     17,4 9,3 36 52 76 1.009 1.014 1.016 OSO 4,5 22,5 1,0 0,20
16-11-2019 9,1     12,1     15,7 6,6 40 53 66 1.007 1.011 1.016 O 11,4 38,6 0,0
15-11-2019 10,2     12,3     15,4 5,2 41 57 70 1.002 1.004 1.007 O 8,6 37,0 0,0
14-11-2019 11,7     14,5     17,7 6,0 46 67 89 1.000 1.004 1.011 OSO 6,5 48,3 0,2
13-11-2019 13,1     17,7     22,9 9,8 44 60 86 1.007 1.009 1.012 SO 6,8 48,3 0,2
12-11-2019 10,6     15,1     19,3 8,7 32 49 63 1.010 1.012 1.013 ONO 10,2 37,0 0,0
11-11-2019 10,3     14,0     17,7 7,4 42 54 65 1.011 1.013 1.015 ONO 13,1 38,6 0,0
10-11-2019 12,7     15,1     17,5 4,8 35 52 76 1.012 1.013 1.015 ONO 15,3 59,5 0,0
09-11-2019 12,6     15,3     19,7 7,1 33 50 74 1.015 1.018 1.021 OSO 9,3 37,0 0,4
08-11-2019 12,4     15,1     17,9 5,5 36 48 64 1.010 1.014 1.019 O 10,8 45,1 0,0
07-11-2019 12,9     17,0     21,9 9,0 43 58 71 1.008 1.011 1.014 OSO 5,6 33,8 0,2
06-11-2019 14,2     17,1     21,3 7,1 37 53 67 1.013 1.014 1.015 O 9,6 38,6 0,0
05-11-2019 15,6     18,7     21,0 5,4 39 52 73 1.007 1.010 1.014 O 11,0 46,7 0,0
04-11-2019 17,7     21,4     25,1 7,4 47 58 73 1.007 1.010 1.013 SSO 5,7 27,4 0,0
03-11-2019 19,9     22,9     26,7 6,8 41 51 62 1.004 1.006 1.012 OSO 12,0 49,9 0,0
02-11-2019 20,9     23,3     27,3 6,4 41 56 69 1.006 1.010 1.015 OSO 4,3 30,6 0,0
01-11-2019 20,2     23,7     28,2 8,0 51 64 74 1.015 1.018 1.020 OSO 4,7 22,5 0,0
31-10-2019 19,9     23,0     26,9 7,0 53 64 77 1.019 1.020 1.022 O 5,0 30,6 0,0
30-10-2019 17,9     20,8     25,3 7,4 57 75 86 1.018 1.020 1.021 OSO 5,6 19,3 0,0
29-10-2019 16,4     20,1     24,1 7,7 58 81 91 1.015 1.017 1.019 SO 3,2 20,9 0,0
28-10-2019 15,2     18,4     22,2 7,0 69 85 94 1.016 1.018 1.020 OSO 4,2 19,3 0,2
27-10-2019 15,2     18,3     22,0 6,8 69 85 94 1.020 1.021 1.022 SO 4,3 16,1 0,0
26-10-2019 14,2     18,1     22,3 8,1 67 80 91 1.020 1.021 1.022 SO 4,4 17,7 0,0
25-10-2019 14,9     18,3     22,3 7,4 57 67 80 1.020 1.022 1.023 OSO 6,3 24,1 0,0
24-10-2019 13,3     17,1     21,3 8,0 49 64 77 1.012 1.016 1.022 O 6,9 32,2 0,0
23-10-2019 11,8     15,7     20,1 8,3 54 72 90 1.007 1.009 1.012 OSO 4,3 29,0 0,4
22-10-2019 13,1     14,2     16,7 3,6 81 90 94 1.007 1.010 1.016 O 7,4 32,2 39,6 0,50 1,60
21-10-2019 14,7     17,0     19,6 4,9 51 65 88 1.015 1.016 1.018 OSO 3,8 20,9 3,8 0,37 0,40
Últims 13 mesos disponibles
10/2019 11,8 17,7 23,3 20,9 16,7 24,6 31,0 19,2 52 74 90 1.009 1.016 1.022 OSO 5,3 43,5 46,8
09/2019 16,7 21,6 24,6 24,2 22,8 27,0 30,4 13,7 54 80 90 1.010 1.017 1.021 SO 7,0 49,9 166,0
08/2019 21,4 24,0 26,4 26,5 27,6 29,1 35,7 14,3 65 79 87 1.010 1.015 1.019 SSE 6,6 43,5 32,4
07/2019 22,4 24,1 26,0 26,5 26,6 29,6 35,8 13,4 54 75 85 1.006 1.013 1.019 S 7,2 53,1 0,6
06/2019 16,3 20,0 24,3 22,7 21,7 25,7 33,1 16,8 55 73 86 1.009 1.015 1.022 S 7,6 46,7 0,0
05/2019 13,4 16,6 19,8 19,4 18,3 22,3 28,7 15,3 49 74 84 1.006 1.015 1.025 S 7,2 46,7 2,4
04/2019 10,3 13,2 16,1 16,0 15,6 19,6 25,8 15,5 51 72 93 1.000 1.013 1.025 OSO 7,7 66,0 205,0
03/2019 7,9 11,0 14,0 14,6 14,2 18,3 25,7 17,8 54 71 89 1.011 1.022 1.030 S 6,5 48,3 27,2
02/2019 5,8 9,5 12,8 13,1 13,9 17,1 22,0 16,2 36 65 83 997 1.023 1.032 OSO 7,2 64,4 3,6
01/2019 4,6 8,6 13,2 12,1 12,4 16,7 22,3 17,7 44 63 84 1.005 1.019 1.031 O 5,9 48,3 2,0
12/2018 7,8 10,7 14,7 13,9 14,8 18,4 23,8 16,0 54 72 85 1.010 1.025 1.031 OSO 5,4 61,2 7,4
11/2018 9,0 12,6 16,4 15,7 15,7 19,2 21,2 12,2 55 73 90 1.000 1.015 1.022 OSO 6,5 58,0 133,4
10/2018 10,2 16,9 21,7 20,0 15,6 23,2 25,8 15,6 42 72 86 1.000 1.014 1.025 6,5 48,0 35,0
Tots els anys disponibles
2018 4,4 16,0 27,9 19,1 12,0 22,4 33,9 29,5 42 69 90 994 1.016 1.033 OSO 1,4 66,0 386,0
2017 2,0 16,5 28,1 19,6 6,8 22,6 34,5 32,5 23 64 87 1.000 1.019 1.036 SSO 0,1 61,0 152,8
2016 5,3 16,7 26,0 19,5 13,4 22,2 36,6 31,3 20 62 86 998 1.018 1.042 66,0 200,3
2015 4,0 16,5 23,5 19,4 22,5 22,3 36,6 32,6 36 63 73 1.015 1.019 1.029 83,0 170,0
2014 5,0 16,4 26,0 19,1 11,6 21,8 33,4 28,4 16 48 85 993 1.016 1.032 69,0 198,2
2013 4,6 15,5 20,0 18,3 19,8 21,2 32,5 27,9 35 48 58 1.008 1.016 1.024 71,0 217,8
2012 1,3 15,4 23,0 18,3 20,5 21,1 33,3 32,0 47 60 67 1.014 1.017 1.021 60,0 305,2
2011 2,4 15,9 25,4 18,7 10,5 21,5 35,1 32,7 34 68 92 57,0 203,8
Temperatura (°C)
Humitat relativa (%)
Velocitat del vent i ràfega màxima (km/h)
Direcció del vent (°)
Pressió (hPa)
Precipitació (mm)
Nota sobre les dades: s'avisa a l'usuari de la provisionalitat i no oficialitat d'aquestes dades
Logo AVAMET blanc
Web allotjada a Sollutia
Llicència de Creative CommonsLa web d'AVAMET i els seus continguts estan subjectes a una llicència de
Reconeixement - No Comercial - Compartir igual
Últimes estacions: Xàbia - Alt de la Granadella (Soci), Villena - Sierra de Salinas (Soci), Sueca - Centre (Inforatge), Xàbia - La Plana (Soci), - - -